Main page
METAR-TAF:

METAR-TAF

Airports :

Karachi, Pakistan

Jinnah International Airport

latitude: 24-54N, longitude: 067-08E, elevation: 21 m

Current weather observation

The report was made 37 minutes ago, at 13:55 UTC
Wind 10 kt from the West/Southwest
Temperature 29°C
Humidity 66%
Pressure 1006 hPa
Visibility: 6000 m

METAR: OPKC 251355Z 24010KT 6000 NSC 29/22 Q1006 NOSIG

Time: 19:32 (14:32 UTC)

Forecast

The report was made 4 hours and 32 minutes ago, at 10:00 UTC
Forecast valid from 25 at 12 UTC to 26 at 18 UTC
Wind 12 kt from the West/Southwest with gusts up to 22 kt
Visibility: 6000 m
Becoming
from 25 at 19 UTC to 25 at 21 UTC
Wind 5 kt from the West with gusts up to 15 kt
Visibility: 5000 m
haze
From 26 at 0600 UTC
Wind 10 kt from the West/Southwest with gusts up to 20 kt
Visibility: 7000 m

TAF: OPKC 251000Z 2512/2618 25012G22KT 6000 NSC BECMG 2519/2521 28005G15KT 5000 HZ NSC FM260600 24010G20KT 7000 NSC

Weather observations and forecasts of more than 4000 airports (METAR and TAF reports).

The available stations are represented by yellow and red dots on the map.

Hover mouse over dot to see the name of the station.

Then click to see weather observations and forecasts.

To change the map : click on the green buttons with a black cross to zoom in, on the green button with a dash to zoom out, or on the green arrows for adjacent maps.


METAR-TAF: